createdAt,value
2022-10-08T00:04:13.125Z,10.70
2022-10-08T00:08:32.776Z,10.50
2022-10-08T00:12:50.217Z,10.50
2022-10-08T00:17:08.019Z,10.40
2022-10-08T00:21:36.591Z,10.50
2022-10-08T00:25:53.958Z,10.50
2022-10-08T00:30:12.026Z,10.50
2022-10-08T00:34:30.733Z,10.50
2022-10-08T00:38:49.328Z,10.40
2022-10-08T00:43:10.429Z,10.30
2022-10-08T00:47:33.857Z,10.30
2022-10-08T00:51:54.623Z,10.30
2022-10-08T00:56:12.159Z,10.20
2022-10-08T01:00:30.961Z,10.20
2022-10-08T01:04:48.659Z,10.00
2022-10-08T01:09:14.133Z,9.90
2022-10-08T01:13:56.373Z,9.90
2022-10-08T01:18:45.420Z,9.80
2022-10-08T01:23:14.510Z,9.80
2022-10-08T01:27:42.230Z,9.90
2022-10-08T01:32:16.819Z,10.00
2022-10-08T01:36:43.430Z,10.60
2022-10-08T01:41:06.388Z,11.20
2022-10-08T01:45:33.128Z,11.50
2022-10-08T01:50:12.905Z,11.30
2022-10-08T01:54:31.199Z,11.20
2022-10-08T01:58:56.083Z,11.10
2022-10-08T02:03:13.520Z,10.90
2022-10-08T02:07:35.635Z,10.70
2022-10-08T02:11:53.365Z,10.70
2022-10-08T02:16:20.738Z,10.90
2022-10-08T02:20:45.137Z,10.90
2022-10-08T02:25:20.575Z,10.90
2022-10-08T02:29:46.173Z,10.90
2022-10-08T02:34:15.790Z,10.80
2022-10-08T02:38:54.186Z,10.90
2022-10-08T02:43:22.018Z,11.00
2022-10-08T02:47:42.231Z,11.00
2022-10-08T02:52:02.552Z,11.00
2022-10-08T02:56:46.835Z,11.00
2022-10-08T03:01:28.841Z,11.00
2022-10-08T03:05:49.059Z,11.00
2022-10-08T03:10:07.954Z,11.10
2022-10-08T03:14:25.652Z,11.10
2022-10-08T03:18:44.305Z,11.20
2022-10-08T03:23:02.218Z,11.40
2022-10-08T03:27:19.472Z,11.40
2022-10-08T03:31:37.233Z,11.50
2022-10-08T03:35:54.680Z,11.40
2022-10-08T03:40:12.052Z,11.40
2022-10-08T03:44:29.740Z,11.40
2022-10-08T03:48:49.649Z,11.60
2022-10-08T03:53:07.153Z,11.60
2022-10-08T03:57:24.654Z,11.70
2022-10-08T04:01:42.183Z,11.80
2022-10-08T04:06:01.158Z,11.80
2022-10-08T04:10:18.523Z,11.90
2022-10-08T04:14:35.870Z,12.20
2022-10-08T04:18:53.263Z,12.30
2022-10-08T04:23:11.362Z,12.40
2022-10-08T04:27:30.035Z,12.50
2022-10-08T04:31:47.715Z,12.60
2022-10-08T04:36:14.340Z,12.70
2022-10-08T04:40:31.770Z,12.80
2022-10-08T04:44:49.214Z,13.00
2022-10-08T04:49:06.591Z,13.00
2022-10-08T04:53:25.683Z,13.10
2022-10-08T04:57:42.937Z,13.20
2022-10-08T05:02:00.483Z,13.20
2022-10-08T05:06:21.540Z,13.30
2022-10-08T05:10:38.932Z,13.20
2022-10-08T05:14:56.378Z,13.20
2022-10-08T05:19:13.688Z,13.30
2022-10-08T05:23:31.031Z,13.40
2022-10-08T05:27:48.588Z,13.50
2022-10-08T05:32:06.009Z,13.50
2022-10-08T05:36:26.267Z,13.60
2022-10-08T05:40:43.615Z,13.60
2022-10-08T05:45:01.163Z,13.60
2022-10-08T05:49:23.440Z,13.50
2022-10-08T05:53:43.600Z,13.60
2022-10-08T05:58:00.905Z,13.50
2022-10-08T06:02:18.223Z,13.60
2022-10-08T06:06:41.364Z,13.60
2022-10-08T06:10:59.833Z,13.60
2022-10-08T06:15:17.331Z,13.70
2022-10-08T06:19:37.863Z,13.70
2022-10-08T06:23:58.495Z,13.80
2022-10-08T06:28:16.459Z,13.90
2022-10-08T06:32:33.873Z,13.80
2022-10-08T06:36:51.232Z,13.90
2022-10-08T06:41:08.839Z,14.00
2022-10-08T06:45:26.531Z,14.00
2022-10-08T06:49:44.140Z,14.20
2022-10-08T06:54:07.397Z,14.20
2022-10-08T06:58:27.862Z,14.40
2022-10-08T07:02:45.584Z,14.50
2022-10-08T07:07:03.180Z,14.60
2022-10-08T07:11:21.467Z,14.60
2022-10-08T07:15:38.748Z,14.40
2022-10-08T07:19:57.412Z,14.50
2022-10-08T07:24:21.653Z,14.70
2022-10-08T07:28:41.482Z,15.00
2022-10-08T07:33:00.359Z,15.10
2022-10-08T07:37:17.624Z,15.10
2022-10-08T07:41:35.696Z,15.20
2022-10-08T07:45:53.470Z,15.30
2022-10-08T07:50:10.803Z,15.40
2022-10-08T07:54:28.184Z,15.50
2022-10-08T07:58:47.373Z,15.80
2022-10-08T08:03:04.995Z,16.00
2022-10-08T08:07:22.376Z,16.20
2022-10-08T08:11:41.019Z,16.30
2022-10-08T08:16:00.228Z,16.70
2022-10-08T08:20:17.817Z,16.60
2022-10-08T08:24:35.204Z,16.50
2022-10-08T08:28:54.975Z,16.10
2022-10-08T08:33:13.083Z,15.40
2022-10-08T08:37:30.498Z,15.00
2022-10-08T08:42:05.846Z,14.70
2022-10-08T08:46:23.606Z,14.50
2022-10-08T08:50:47.931Z,14.40
2022-10-08T08:55:16.071Z,14.40
2022-10-08T08:59:38.478Z,14.70
2022-10-08T09:04:21.204Z,14.80
2022-10-08T09:08:54.415Z,14.90
2022-10-08T09:13:20.538Z,15.00
2022-10-08T09:17:41.240Z,15.00
2022-10-08T09:21:58.570Z,15.00
2022-10-08T09:26:21.467Z,15.10
2022-10-08T09:30:45.062Z,15.10
2022-10-08T09:35:07.831Z,14.90
2022-10-08T09:39:31.243Z,14.80
2022-10-08T09:44:08.591Z,15.00
2022-10-08T09:48:30.542Z,15.20
2022-10-08T09:52:51.387Z,15.80
2022-10-08T09:57:09.096Z,16.30
2022-10-08T10:01:27.549Z,16.30
2022-10-08T10:05:52.684Z,16.60
2022-10-08T10:10:19.010Z,17.40
2022-10-08T10:14:48.709Z,18.20
2022-10-08T10:19:20.503Z,18.50
2022-10-08T10:24:06.665Z,18.30
2022-10-08T10:28:57.623Z,18.30
2022-10-08T10:33:20.783Z,17.70
2022-10-08T10:37:45.463Z,18.30
2022-10-08T10:42:15.041Z,17.60
2022-10-08T10:46:43.739Z,17.70
2022-10-08T10:51:24.407Z,18.30
2022-10-08T10:56:04.960Z,18.50
2022-10-08T11:00:25.841Z,19.40
2022-10-08T11:05:04.225Z,20.10
2022-10-08T11:09:30.861Z,21.20
2022-10-08T11:14:02.751Z,21.00
2022-10-08T11:18:47.524Z,20.90
2022-10-08T11:23:26.599Z,21.70
2022-10-08T11:28:13.260Z,21.00
2022-10-08T11:32:32.635Z,20.80
2022-10-08T11:37:06.048Z,20.60
2022-10-08T11:41:38.098Z,19.80
2022-10-08T11:46:29.097Z,20.00
2022-10-08T11:50:46.512Z,19.60
2022-10-08T11:55:04.812Z,18.90
2022-10-08T11:59:47.296Z,19.90
2022-10-08T12:04:22.043Z,20.50
2022-10-08T12:08:55.668Z,20.50
2022-10-08T12:13:17.440Z,19.10
2022-10-08T12:18:10.523Z,19.20
2022-10-08T12:22:27.723Z,18.40
2022-10-08T12:27:22.538Z,17.50
2022-10-08T12:31:42.709Z,17.10
2022-10-08T12:36:11.158Z,16.70
2022-10-08T12:40:49.687Z,16.40
2022-10-08T12:45:28.530Z,16.20
2022-10-08T12:49:51.965Z,16.10
2022-10-08T12:54:23.260Z,16.40
2022-10-08T12:58:45.334Z,16.30
2022-10-08T13:03:14.239Z,16.30
2022-10-08T13:07:33.845Z,16.30
2022-10-08T13:11:56.278Z,16.10
2022-10-08T13:16:23.122Z,15.90
2022-10-08T13:20:55.935Z,15.70
2022-10-08T13:25:34.969Z,15.40
2022-10-08T13:29:53.124Z,15.10
2022-10-08T13:34:16.280Z,15.00
2022-10-08T13:38:36.210Z,14.70
2022-10-08T13:42:55.947Z,14.50
2022-10-08T13:47:14.859Z,14.20
2022-10-08T13:51:32.199Z,14.00
2022-10-08T13:55:50.930Z,13.80
2022-10-08T14:00:14.087Z,13.50
2022-10-08T14:04:31.568Z,13.40
2022-10-08T14:08:49.059Z,13.30
2022-10-08T14:13:06.536Z,13.30
2022-10-08T14:17:24.125Z,13.30
2022-10-08T14:21:42.575Z,13.30
2022-10-08T14:26:00.090Z,13.10
2022-10-08T14:30:21.259Z,12.70
2022-10-08T14:34:39.385Z,12.30
2022-10-08T14:38:56.865Z,12.30
2022-10-08T14:43:14.194Z,12.30
2022-10-08T14:47:31.597Z,12.20
2022-10-08T14:51:49.068Z,12.10
2022-10-08T14:56:12.474Z,12.10
2022-10-08T15:00:30.123Z,12.30
2022-10-08T15:04:48.204Z,12.30
2022-10-08T15:09:06.307Z,12.30
2022-10-08T15:13:24.796Z,12.30
2022-10-08T15:17:42.104Z,12.30
2022-10-08T15:21:59.508Z,12.20
2022-10-08T15:26:18.435Z,12.40
2022-10-08T15:30:35.780Z,12.40
2022-10-08T15:34:52.939Z,12.50
2022-10-08T15:39:18.275Z,12.60
2022-10-08T15:43:36.059Z,12.70
2022-10-08T15:47:53.812Z,12.60
2022-10-08T15:52:14.308Z,12.70
2022-10-08T15:56:31.715Z,12.60
2022-10-08T16:00:49.508Z,12.80
2022-10-08T16:05:07.607Z,12.70
2022-10-08T16:09:25.264Z,12.60
2022-10-08T16:13:44.105Z,12.50
2022-10-08T16:18:01.735Z,12.50
2022-10-08T16:22:20.158Z,12.30
2022-10-08T16:26:39.979Z,12.30
2022-10-08T16:30:58.425Z,12.10
2022-10-08T16:35:15.862Z,12.10
2022-10-08T16:39:33.263Z,12.00
2022-10-08T16:43:52.236Z,11.90
2022-10-08T16:48:09.446Z,11.80
2022-10-08T16:52:26.721Z,11.80
2022-10-08T16:56:45.259Z,11.60
2022-10-08T17:01:06.872Z,11.50
2022-10-08T17:05:24.397Z,11.40
2022-10-08T17:09:42.027Z,11.20
2022-10-08T17:14:00.319Z,11.10
2022-10-08T17:18:17.692Z,10.90
2022-10-08T17:22:36.364Z,10.60
2022-10-08T17:26:53.894Z,10.50
2022-10-08T17:31:19.699Z,10.40
2022-10-08T17:35:36.937Z,10.30
2022-10-08T17:39:54.289Z,10.30
2022-10-08T17:44:12.027Z,10.20
2022-10-08T17:48:31.469Z,10.10
2022-10-08T17:52:48.910Z,9.90
2022-10-08T17:57:06.308Z,9.70
2022-10-08T18:01:26.558Z,9.70
2022-10-08T18:05:44.221Z,9.80
2022-10-08T18:10:01.543Z,9.90
2022-10-08T18:14:19.871Z,9.90
2022-10-08T18:18:37.148Z,9.70
2022-10-08T18:22:54.330Z,9.60
2022-10-08T18:27:11.516Z,9.40
2022-10-08T18:31:32.946Z,9.30
2022-10-08T18:35:50.234Z,9.20
2022-10-08T18:40:07.749Z,9.10
2022-10-08T18:44:26.067Z,9.00
2022-10-08T18:48:43.577Z,9.00
2022-10-08T18:53:00.741Z,8.90
2022-10-08T18:57:17.952Z,8.70
2022-10-08T19:01:38.424Z,8.70
2022-10-08T19:05:55.711Z,8.60
2022-10-08T19:10:12.970Z,8.50
2022-10-08T19:14:30.121Z,8.50
2022-10-08T19:19:02.526Z,8.40
2022-10-08T19:23:19.813Z,8.30
2022-10-08T19:27:37.073Z,8.20
2022-10-08T19:31:54.329Z,8.20
2022-10-08T19:36:11.634Z,8.10
2022-10-08T19:40:28.822Z,8.00
2022-10-08T19:44:46.034Z,7.90
2022-10-08T19:49:05.276Z,7.90
2022-10-08T19:53:23.300Z,7.90
2022-10-08T19:57:40.573Z,7.80
2022-10-08T20:01:57.940Z,7.70
2022-10-08T20:06:24.348Z,7.60
2022-10-08T20:10:42.677Z,7.60
2022-10-08T20:14:59.840Z,7.40
2022-10-08T20:19:20.646Z,7.40
2022-10-08T20:23:39.507Z,7.30
2022-10-08T20:27:56.611Z,7.20
2022-10-08T20:32:13.694Z,7.10
2022-10-08T20:36:31.730Z,7.00
2022-10-08T20:40:48.903Z,7.00
2022-10-08T20:45:07.382Z,6.90
2022-10-08T20:49:24.762Z,6.90
2022-10-08T20:54:03.949Z,6.80
2022-10-08T20:58:21.203Z,6.80
2022-10-08T21:02:38.417Z,6.70
2022-10-08T21:06:55.595Z,6.60
2022-10-08T21:11:18.672Z,6.60
2022-10-08T21:15:35.890Z,6.50
2022-10-08T21:19:53.080Z,6.50
2022-10-08T21:24:10.680Z,6.40
2022-10-08T21:28:27.886Z,6.40
2022-10-08T21:32:46.289Z,6.30
2022-10-08T21:37:03.697Z,6.30
2022-10-08T21:41:23.463Z,6.30
2022-10-08T21:45:40.671Z,6.10
2022-10-08T21:49:57.933Z,6.00
2022-10-08T21:54:16.113Z,6.00
2022-10-08T21:58:41.633Z,6.00
2022-10-08T22:02:58.842Z,5.90
2022-10-08T22:07:16.075Z,5.90
2022-10-08T22:11:33.537Z,5.90
2022-10-08T22:15:58.651Z,5.90
2022-10-08T22:20:16.067Z,5.90
2022-10-08T22:24:33.237Z,5.80
2022-10-08T22:28:51.088Z,5.80
2022-10-08T22:33:08.344Z,5.90
2022-10-08T22:37:25.573Z,6.00
2022-10-08T22:41:42.796Z,5.90
2022-10-08T22:46:05.128Z,5.90
2022-10-08T22:50:22.520Z,5.90
2022-10-08T22:54:39.763Z,5.80
2022-10-08T22:58:58.892Z,5.80
2022-10-08T23:03:16.087Z,5.80
2022-10-08T23:07:33.508Z,5.70
2022-10-08T23:11:50.676Z,5.70
2022-10-08T23:16:10.465Z,5.70
2022-10-08T23:20:27.681Z,5.60
2022-10-08T23:24:44.871Z,5.60
2022-10-08T23:29:03.346Z,5.50
2022-10-08T23:33:21.058Z,5.50
2022-10-08T23:37:38.219Z,5.40
2022-10-08T23:41:55.474Z,5.50
2022-10-08T23:46:14.833Z,5.30
2022-10-08T23:50:35.395Z,5.20
2022-10-08T23:54:52.684Z,5.30
2022-10-08T23:59:09.985Z,5.20
